sensor_id;sensor_type;location;lat;lon;timestamp;temperature;humidity
5415;DHT22;2730;51.512;7.504;2023-08-07T00:01:36;13.30;99.90
5415;DHT22;2730;51.512;7.504;2023-08-07T00:04:03;13.30;99.90
5415;DHT22;2730;51.512;7.504;2023-08-07T00:06:30;13.20;99.90
5415;DHT22;2730;51.512;7.504;2023-08-07T00:08:57;13.30;99.90
5415;DHT22;2730;51.512;7.504;2023-08-07T00:11:23;13.20;99.90
5415;DHT22;2730;51.512;7.504;2023-08-07T00:13:51;13.30;99.90
5415;DHT22;2730;51.512;7.504;2023-08-07T00:16:18;13.30;99.90
5415;DHT22;2730;51.512;7.504;2023-08-07T00:18:45;13.30;99.90
5415;DHT22;2730;51.512;7.504;2023-08-07T00:21:12;13.30;99.90
5415;DHT22;2730;51.512;7.504;2023-08-07T00:23:38;13.20;99.90
5415;DHT22;2730;51.512;7.504;2023-08-07T00:26:05;13.30;99.90
5415;DHT22;2730;51.512;7.504;2023-08-07T00:28:32;13.30;99.90
5415;DHT22;2730;51.512;7.504;2023-08-07T00:31:00;13.30;99.90
5415;DHT22;2730;51.512;7.504;2023-08-07T00:33:27;13.30;99.90
5415;DHT22;2730;51.512;7.504;2023-08-07T00:35:53;13.30;99.90
5415;DHT22;2730;51.512;7.504;2023-08-07T00:38:20;13.30;99.90
5415;DHT22;2730;51.512;7.504;2023-08-07T00:40:47;13.30;99.90
5415;DHT22;2730;51.512;7.504;2023-08-07T00:43:14;13.30;99.90
5415;DHT22;2730;51.512;7.504;2023-08-07T00:45:42;13.30;99.90
5415;DHT22;2730;51.512;7.504;2023-08-07T00:48:11;13.40;99.90
5415;DHT22;2730;51.512;7.504;2023-08-07T00:50:39;13.40;99.90
5415;DHT22;2730;51.512;7.504;2023-08-07T00:53:06;13.40;99.90
5415;DHT22;2730;51.512;7.504;2023-08-07T00:55:33;13.40;99.90
5415;DHT22;2730;51.512;7.504;2023-08-07T00:58:00;13.40;99.90
5415;DHT22;2730;51.512;7.504;2023-08-07T01:00:28;13.30;99.90
5415;DHT22;2730;51.512;7.504;2023-08-07T01:02:56;13.30;99.90
5415;DHT22;2730;51.512;7.504;2023-08-07T01:05:24;13.30;99.90
5415;DHT22;2730;51.512;7.504;2023-08-07T01:07:53;13.30;99.90
5415;DHT22;2730;51.512;7.504;2023-08-07T01:10:28;13.30;99.90
5415;DHT22;2730;51.512;7.504;2023-08-07T01:13:03;13.30;99.90
5415;DHT22;2730;51.512;7.504;2023-08-07T01:15:33;13.30;99.90
5415;DHT22;2730;51.512;7.504;2023-08-07T01:18:01;13.30;99.90
5415;DHT22;2730;51.512;7.504;2023-08-07T01:20:31;13.40;99.90
5415;DHT22;2730;51.512;7.504;2023-08-07T01:22:59;13.40;99.90
5415;DHT22;2730;51.512;7.504;2023-08-07T01:25:26;13.30;99.90
5415;DHT22;2730;51.512;7.504;2023-08-07T01:28:00;13.30;99.90
5415;DHT22;2730;51.512;7.504;2023-08-07T01:30:33;13.40;99.90
5415;DHT22;2730;51.512;7.504;2023-08-07T01:33:09;13.30;99.90
5415;DHT22;2730;51.512;7.504;2023-08-07T01:35:40;13.40;99.90
5415;DHT22;2730;51.512;7.504;2023-08-07T01:38:11;13.40;99.90
5415;DHT22;2730;51.512;7.504;2023-08-07T01:40:39;13.40;99.90
5415;DHT22;2730;51.512;7.504;2023-08-07T01:43:07;13.40;99.90
5415;DHT22;2730;51.512;7.504;2023-08-07T01:45:34;13.30;99.90
5415;DHT22;2730;51.512;7.504;2023-08-07T01:48:01;13.30;99.90
5415;DHT22;2730;51.512;7.504;2023-08-07T01:50:29;13.30;99.90
5415;DHT22;2730;51.512;7.504;2023-08-07T01:52:56;13.30;99.90
5415;DHT22;2730;51.512;7.504;2023-08-07T01:55:24;13.30;99.90
5415;DHT22;2730;51.512;7.504;2023-08-07T01:57:50;13.30;99.90
5415;DHT22;2730;51.512;7.504;2023-08-07T02:00:18;13.30;99.90
5415;DHT22;2730;51.512;7.504;2023-08-07T02:02:45;13.30;99.90
5415;DHT22;2730;51.512;7.504;2023-08-07T02:05:12;13.30;99.90
5415;DHT22;2730;51.512;7.504;2023-08-07T02:07:39;13.20;99.90
5415;DHT22;2730;51.512;7.504;2023-08-07T02:10:07;13.20;99.90
5415;DHT22;2730;51.512;7.504;2023-08-07T02:12:35;13.20;99.90
5415;DHT22;2730;51.512;7.504;2023-08-07T02:15:02;13.20;99.90
5415;DHT22;2730;51.512;7.504;2023-08-07T02:17:29;13.10;99.90
5415;DHT22;2730;51.512;7.504;2023-08-07T02:19:56;13.20;99.90
5415;DHT22;2730;51.512;7.504;2023-08-07T02:22:23;13.20;99.90
5415;DHT22;2730;51.512;7.504;2023-08-07T02:24:50;13.10;99.90
5415;DHT22;2730;51.512;7.504;2023-08-07T02:27:17;13.10;99.90
5415;DHT22;2730;51.512;7.504;2023-08-07T02:29:45;13.10;99.90
5415;DHT22;2730;51.512;7.504;2023-08-07T02:32:12;13.20;99.90
5415;DHT22;2730;51.512;7.504;2023-08-07T02:34:39;13.20;99.90
5415;DHT22;2730;51.512;7.504;2023-08-07T02:37:05;13.10;99.90
5415;DHT22;2730;51.512;7.504;2023-08-07T02:39:32;13.10;99.90
5415;DHT22;2730;51.512;7.504;2023-08-07T02:41:59;13.20;99.90
5415;DHT22;2730;51.512;7.504;2023-08-07T02:44:26;13.10;99.90
5415;DHT22;2730;51.512;7.504;2023-08-07T02:46:54;13.10;99.90
5415;DHT22;2730;51.512;7.504;2023-08-07T02:49:21;13.10;99.90
5415;DHT22;2730;51.512;7.504;2023-08-07T02:51:47;13.10;99.90
5415;DHT22;2730;51.512;7.504;2023-08-07T02:54:14;13.10;99.90
5415;DHT22;2730;51.512;7.504;2023-08-07T02:56:41;13.20;99.90
5415;DHT22;2730;51.512;7.504;2023-08-07T02:59:08;13.10;99.90
5415;DHT22;2730;51.512;7.504;2023-08-07T03:01:35;13.20;99.90
5415;DHT22;2730;51.512;7.504;2023-08-07T03:04:03;13.10;99.90
5415;DHT22;2730;51.512;7.504;2023-08-07T03:06:30;13.10;99.90
5415;DHT22;2730;51.512;7.504;2023-08-07T03:08:57;13.10;99.90
5415;DHT22;2730;51.512;7.504;2023-08-07T03:11:23;13.10;99.90
5415;DHT22;2730;51.512;7.504;2023-08-07T03:13:50;13.20;99.90
5415;DHT22;2730;51.512;7.504;2023-08-07T03:16:17;13.10;99.90
5415;DHT22;2730;51.512;7.504;2023-08-07T03:18:44;13.10;99.90
5415;DHT22;2730;51.512;7.504;2023-08-07T03:21:13;13.20;99.90
5415;DHT22;2730;51.512;7.504;2023-08-07T03:23:40;13.20;99.90
5415;DHT22;2730;51.512;7.504;2023-08-07T03:26:08;13.20;99.90
5415;DHT22;2730;51.512;7.504;2023-08-07T03:28:36;13.10;99.90
5415;DHT22;2730;51.512;7.504;2023-08-07T03:31:03;13.10;99.90
5415;DHT22;2730;51.512;7.504;2023-08-07T03:33:30;13.20;99.90
5415;DHT22;2730;51.512;7.504;2023-08-07T03:35:57;13.20;99.90
5415;DHT22;2730;51.512;7.504;2023-08-07T03:38:25;13.20;99.90
5415;DHT22;2730;51.512;7.504;2023-08-07T03:40:52;13.20;99.90
5415;DHT22;2730;51.512;7.504;2023-08-07T03:43:19;13.20;99.90
5415;DHT22;2730;51.512;7.504;2023-08-07T03:45:47;13.20;99.90
5415;DHT22;2730;51.512;7.504;2023-08-07T03:48:13;13.20;99.90
5415;DHT22;2730;51.512;7.504;2023-08-07T03:50:40;13.20;99.90
5415;DHT22;2730;51.512;7.504;2023-08-07T03:53:07;13.20;99.90
5415;DHT22;2730;51.512;7.504;2023-08-07T03:55:35;13.20;99.90
5415;DHT22;2730;51.512;7.504;2023-08-07T03:58:02;13.20;99.90
5415;DHT22;2730;51.512;7.504;2023-08-07T04:00:29;13.20;99.90
5415;DHT22;2730;51.512;7.504;2023-08-07T04:02:56;13.20;99.90
5415;DHT22;2730;51.512;7.504;2023-08-07T04:05:23;13.20;99.90
5415;DHT22;2730;51.512;7.504;2023-08-07T04:07:49;13.20;99.90
5415;DHT22;2730;51.512;7.504;2023-08-07T04:10:16;13.30;99.90
5415;DHT22;2730;51.512;7.504;2023-08-07T04:12:44;13.20;99.90
5415;DHT22;2730;51.512;7.504;2023-08-07T04:15:11;13.20;99.90
5415;DHT22;2730;51.512;7.504;2023-08-07T04:17:38;13.20;99.90
5415;DHT22;2730;51.512;7.504;2023-08-07T04:20:06;13.20;99.90
5415;DHT22;2730;51.512;7.504;2023-08-07T04:22:33;13.20;99.90
5415;DHT22;2730;51.512;7.504;2023-08-07T04:25:01;13.20;99.90
5415;DHT22;2730;51.512;7.504;2023-08-07T04:27:28;13.20;99.90
5415;DHT22;2730;51.512;7.504;2023-08-07T04:29:57;13.30;99.90
5415;DHT22;2730;51.512;7.504;2023-08-07T04:32:24;13.20;99.90
5415;DHT22;2730;51.512;7.504;2023-08-07T04:34:50;13.20;99.90
5415;DHT22;2730;51.512;7.504;2023-08-07T04:37:17;13.20;99.90
5415;DHT22;2730;51.512;7.504;2023-08-07T04:39:44;13.20;99.90
5415;DHT22;2730;51.512;7.504;2023-08-07T04:42:11;13.20;99.90
5415;DHT22;2730;51.512;7.504;2023-08-07T04:44:37;13.20;99.90
5415;DHT22;2730;51.512;7.504;2023-08-07T04:47:06;13.30;99.90
5415;DHT22;2730;51.512;7.504;2023-08-07T04:49:33;13.30;99.90
5415;DHT22;2730;51.512;7.504;2023-08-07T04:51:59;13.30;99.90
5415;DHT22;2730;51.512;7.504;2023-08-07T04:54:26;13.30;99.90
5415;DHT22;2730;51.512;7.504;2023-08-07T04:56:53;13.30;99.90
5415;DHT22;2730;51.512;7.504;2023-08-07T04:59:19;13.20;99.90
5415;DHT22;2730;51.512;7.504;2023-08-07T05:01:46;13.20;99.90
5415;DHT22;2730;51.512;7.504;2023-08-07T05:04:14;13.20;99.90
5415;DHT22;2730;51.512;7.504;2023-08-07T05:06:41;13.20;99.90
5415;DHT22;2730;51.512;7.504;2023-08-07T05:09:08;13.20;99.90
5415;DHT22;2730;51.512;7.504;2023-08-07T05:11:35;13.30;99.90
5415;DHT22;2730;51.512;7.504;2023-08-07T05:14:01;13.30;99.90
5415;DHT22;2730;51.512;7.504;2023-08-07T05:16:29;13.30;99.90
5415;DHT22;2730;51.512;7.504;2023-08-07T05:18:55;13.30;99.90
5415;DHT22;2730;51.512;7.504;2023-08-07T05:21:23;13.20;99.90
5415;DHT22;2730;51.512;7.504;2023-08-07T05:23:50;13.30;99.90
5415;DHT22;2730;51.512;7.504;2023-08-07T05:26:18;13.20;99.90
5415;DHT22;2730;51.512;7.504;2023-08-07T05:28:45;13.20;99.90
5415;DHT22;2730;51.512;7.504;2023-08-07T05:31:12;13.20;99.90
5415;DHT22;2730;51.512;7.504;2023-08-07T05:33:39;13.20;99.90
5415;DHT22;2730;51.512;7.504;2023-08-07T05:36:06;13.20;99.90
5415;DHT22;2730;51.512;7.504;2023-08-07T05:38:35;13.20;99.90
5415;DHT22;2730;51.512;7.504;2023-08-07T05:41:02;13.20;99.90
5415;DHT22;2730;51.512;7.504;2023-08-07T05:43:28;13.20;99.90
5415;DHT22;2730;51.512;7.504;2023-08-07T05:45:55;13.10;99.90
5415;DHT22;2730;51.512;7.504;2023-08-07T05:48:22;13.10;99.90
5415;DHT22;2730;51.512;7.504;2023-08-07T05:50:49;13.10;99.90
5415;DHT22;2730;51.512;7.504;2023-08-07T05:53:17;13.10;99.90
5415;DHT22;2730;51.512;7.504;2023-08-07T05:55:45;13.10;99.90
5415;DHT22;2730;51.512;7.504;2023-08-07T05:58:12;13.10;99.90
5415;DHT22;2730;51.512;7.504;2023-08-07T06:00:39;13.10;99.90
5415;DHT22;2730;51.512;7.504;2023-08-07T06:03:06;13.20;99.90
5415;DHT22;2730;51.512;7.504;2023-08-07T06:05:33;13.20;99.90
5415;DHT22;2730;51.512;7.504;2023-08-07T06:08:00;13.20;99.90
5415;DHT22;2730;51.512;7.504;2023-08-07T06:10:27;13.10;99.90
5415;DHT22;2730;51.512;7.504;2023-08-07T06:12:55;13.10;99.90
5415;DHT22;2730;51.512;7.504;2023-08-07T06:15:22;13.10;99.90
5415;DHT22;2730;51.512;7.504;2023-08-07T06:17:48;13.10;99.90
5415;DHT22;2730;51.512;7.504;2023-08-07T06:20:16;13.10;99.90
5415;DHT22;2730;51.512;7.504;2023-08-07T06:22:43;13.10;99.90
5415;DHT22;2730;51.512;7.504;2023-08-07T06:25:10;13.10;99.90
5415;DHT22;2730;51.512;7.504;2023-08-07T06:27:37;13.10;99.90
5415;DHT22;2730;51.512;7.504;2023-08-07T06:30:06;13.20;99.90
5415;DHT22;2730;51.512;7.504;2023-08-07T06:32:33;13.20;99.90
5415;DHT22;2730;51.512;7.504;2023-08-07T06:35:02;13.10;99.90
5415;DHT22;2730;51.512;7.504;2023-08-07T06:37:30;13.10;99.90
5415;DHT22;2730;51.512;7.504;2023-08-07T06:39:56;13.10;99.90
5415;DHT22;2730;51.512;7.504;2023-08-07T06:42:23;13.10;99.90
5415;DHT22;2730;51.512;7.504;2023-08-07T06:44:50;13.10;99.90
5415;DHT22;2730;51.512;7.504;2023-08-07T06:47:18;13.10;99.90
5415;DHT22;2730;51.512;7.504;2023-08-07T06:49:45;13.10;99.90
5415;DHT22;2730;51.512;7.504;2023-08-07T06:52:11;13.10;99.90
5415;DHT22;2730;51.512;7.504;2023-08-07T06:54:38;13.20;99.90
5415;DHT22;2730;51.512;7.504;2023-08-07T06:57:05;13.20;99.90
5415;DHT22;2730;51.512;7.504;2023-08-07T06:59:32;13.30;99.90
5415;DHT22;2730;51.512;7.504;2023-08-07T07:01:59;13.20;99.90
5415;DHT22;2730;51.512;7.504;2023-08-07T07:04:27;13.30;99.90
5415;DHT22;2730;51.512;7.504;2023-08-07T07:06:54;13.30;99.90
5415;DHT22;2730;51.512;7.504;2023-08-07T07:09:21;13.30;99.90
5415;DHT22;2730;51.512;7.504;2023-08-07T07:11:48;13.40;99.90
5415;DHT22;2730;51.512;7.504;2023-08-07T07:14:14;13.40;99.90
5415;DHT22;2730;51.512;7.504;2023-08-07T07:16:41;13.50;99.90
5415;DHT22;2730;51.512;7.504;2023-08-07T07:19:09;13.50;99.90
5415;DHT22;2730;51.512;7.504;2023-08-07T07:21:37;13.50;99.90
5415;DHT22;2730;51.512;7.504;2023-08-07T07:24:04;13.60;99.90
5415;DHT22;2730;51.512;7.504;2023-08-07T07:26:31;13.60;99.90
5415;DHT22;2730;51.512;7.504;2023-08-07T07:28:58;13.60;99.90
5415;DHT22;2730;51.512;7.504;2023-08-07T07:31:25;13.70;99.90
5415;DHT22;2730;51.512;7.504;2023-08-07T07:33:52;13.80;99.90
5415;DHT22;2730;51.512;7.504;2023-08-07T07:36:19;13.90;99.90
5415;DHT22;2730;51.512;7.504;2023-08-07T07:38:47;13.80;99.90
5415;DHT22;2730;51.512;7.504;2023-08-07T07:41:14;13.90;99.90
5415;DHT22;2730;51.512;7.504;2023-08-07T07:43:41;13.80;99.90
5415;DHT22;2730;51.512;7.504;2023-08-07T07:46:08;13.80;99.90
5415;DHT22;2730;51.512;7.504;2023-08-07T07:48:35;13.90;99.90
5415;DHT22;2730;51.512;7.504;2023-08-07T07:51:03;13.80;99.90
5415;DHT22;2730;51.512;7.504;2023-08-07T07:53:30;13.80;99.90
5415;DHT22;2730;51.512;7.504;2023-08-07T07:55:58;13.80;99.90
5415;DHT22;2730;51.512;7.504;2023-08-07T07:58:25;13.80;99.90
5415;DHT22;2730;51.512;7.504;2023-08-07T08:00:52;13.70;99.90
5415;DHT22;2730;51.512;7.504;2023-08-07T08:03:20;13.70;99.90
5415;DHT22;2730;51.512;7.504;2023-08-07T08:05:49;13.80;99.90
5415;DHT22;2730;51.512;7.504;2023-08-07T08:08:16;13.80;99.90
5415;DHT22;2730;51.512;7.504;2023-08-07T08:10:43;13.80;99.90
5415;DHT22;2730;51.512;7.504;2023-08-07T08:13:11;13.80;99.90
5415;DHT22;2730;51.512;7.504;2023-08-07T08:15:38;13.90;99.90
5415;DHT22;2730;51.512;7.504;2023-08-07T08:18:05;13.90;99.90
5415;DHT22;2730;51.512;7.504;2023-08-07T08:20:32;14.00;99.90
5415;DHT22;2730;51.512;7.504;2023-08-07T08:22:58;14.10;99.90
5415;DHT22;2730;51.512;7.504;2023-08-07T08:25:25;14.20;99.90
5415;DHT22;2730;51.512;7.504;2023-08-07T08:27:52;14.10;99.90
5415;DHT22;2730;51.512;7.504;2023-08-07T08:30:21;14.10;99.90
5415;DHT22;2730;51.512;7.504;2023-08-07T08:32:48;14.00;99.90
5415;DHT22;2730;51.512;7.504;2023-08-07T08:35:14;14.10;99.90
5415;DHT22;2730;51.512;7.504;2023-08-07T08:37:41;14.20;99.90
5415;DHT22;2730;51.512;7.504;2023-08-07T08:40:09;14.10;99.90
5415;DHT22;2730;51.512;7.504;2023-08-07T08:42:39;14.20;99.90
5415;DHT22;2730;51.512;7.504;2023-08-07T08:45:09;14.30;99.90
5415;DHT22;2730;51.512;7.504;2023-08-07T08:47:38;14.40;99.90
5415;DHT22;2730;51.512;7.504;2023-08-07T08:50:07;14.60;99.90
5415;DHT22;2730;51.512;7.504;2023-08-07T08:52:36;14.70;99.90
5415;DHT22;2730;51.512;7.504;2023-08-07T08:55:04;14.50;99.90
5415;DHT22;2730;51.512;7.504;2023-08-07T08:57:33;14.40;99.90
5415;DHT22;2730;51.512;7.504;2023-08-07T09:00:00;14.40;99.90
5415;DHT22;2730;51.512;7.504;2023-08-07T09:02:30;14.50;99.90
5415;DHT22;2730;51.512;7.504;2023-08-07T09:04:58;14.70;99.90
5415;DHT22;2730;51.512;7.504;2023-08-07T09:07:27;14.80;99.90
5415;DHT22;2730;51.512;7.504;2023-08-07T09:09:55;14.90;99.90
5415;DHT22;2730;51.512;7.504;2023-08-07T09:12:26;14.90;99.90
5415;DHT22;2730;51.512;7.504;2023-08-07T09:14:56;14.80;99.90
5415;DHT22;2730;51.512;7.504;2023-08-07T09:17:26;14.80;99.90
5415;DHT22;2730;51.512;7.504;2023-08-07T09:19:53;14.70;99.90
5415;DHT22;2730;51.512;7.504;2023-08-07T09:22:21;14.80;99.90
5415;DHT22;2730;51.512;7.504;2023-08-07T09:24:48;14.90;99.90
5415;DHT22;2730;51.512;7.504;2023-08-07T09:27:15;15.00;99.90
5415;DHT22;2730;51.512;7.504;2023-08-07T09:29:43;15.50;99.90
5415;DHT22;2730;51.512;7.504;2023-08-07T09:32:12;16.70;99.90
5415;DHT22;2730;51.512;7.504;2023-08-07T09:34:39;17.20;99.90
5415;DHT22;2730;51.512;7.504;2023-08-07T09:37:07;17.40;99.90
5415;DHT22;2730;51.512;7.504;2023-08-07T09:39:35;17.00;99.90
5415;DHT22;2730;51.512;7.504;2023-08-07T09:42:03;17.10;99.90
5415;DHT22;2730;51.512;7.504;2023-08-07T09:44:35;17.50;99.90
5415;DHT22;2730;51.512;7.504;2023-08-07T09:47:11;17.50;99.90
5415;DHT22;2730;51.512;7.504;2023-08-07T09:49:38;17.60;99.90
5415;DHT22;2730;51.512;7.504;2023-08-07T09:52:06;17.80;99.90
5415;DHT22;2730;51.512;7.504;2023-08-07T09:54:36;18.00;99.90
5415;DHT22;2730;51.512;7.504;2023-08-07T09:57:03;18.20;99.90
5415;DHT22;2730;51.512;7.504;2023-08-07T09:59:31;17.90;99.90
5415;DHT22;2730;51.512;7.504;2023-08-07T10:02:00;17.40;99.90
5415;DHT22;2730;51.512;7.504;2023-08-07T10:04:27;17.40;99.90
5415;DHT22;2730;51.512;7.504;2023-08-07T10:06:54;17.10;99.90
5415;DHT22;2730;51.512;7.504;2023-08-07T10:09:22;17.50;99.90
5415;DHT22;2730;51.512;7.504;2023-08-07T10:11:50;18.50;99.90
5415;DHT22;2730;51.512;7.504;2023-08-07T10:14:18;19.70;99.90
5415;DHT22;2730;51.512;7.504;2023-08-07T10:16:45;20.70;46.10
5415;DHT22;2730;51.512;7.504;2023-08-07T10:19:12;21.20;1.00
5415;DHT22;2730;51.512;7.504;2023-08-07T10:21:40;20.30;1.00
5415;DHT22;2730;51.512;7.504;2023-08-07T10:24:08;20.10;23.80
5415;DHT22;2730;51.512;7.504;2023-08-07T10:26:45;19.10;1.00
5415;DHT22;2730;51.512;7.504;2023-08-07T10:29:14;18.10;42.90
5415;DHT22;2730;51.512;7.504;2023-08-07T10:31:43;16.90;99.90
5415;DHT22;2730;51.512;7.504;2023-08-07T10:34:10;16.20;99.90
5415;DHT22;2730;51.512;7.504;2023-08-07T10:36:39;16.40;99.90
5415;DHT22;2730;51.512;7.504;2023-08-07T10:39:07;16.90;99.90
5415;DHT22;2730;51.512;7.504;2023-08-07T10:41:42;17.50;99.90
5415;DHT22;2730;51.512;7.504;2023-08-07T10:44:20;18.10;99.90
5415;DHT22;2730;51.512;7.504;2023-08-07T10:46:48;19.50;99.90
5415;DHT22;2730;51.512;7.504;2023-08-07T10:49:30;20.40;99.90
5415;DHT22;2730;51.512;7.504;2023-08-07T10:51:57;21.10;1.00
5415;DHT22;2730;51.512;7.504;2023-08-07T10:54:24;20.50;1.00
5415;DHT22;2730;51.512;7.504;2023-08-07T10:56:53;20.50;99.90
5415;DHT22;2730;51.512;7.504;2023-08-07T10:59:21;20.70;1.00
5415;DHT22;2730;51.512;7.504;2023-08-07T11:01:51;20.30;1.00
5415;DHT22;2730;51.512;7.504;2023-08-07T11:04:18;20.50;1.00
5415;DHT22;2730;51.512;7.504;2023-08-07T11:06:47;20.50;99.90
5415;DHT22;2730;51.512;7.504;2023-08-07T11:09:14;20.30;84.10
5415;DHT22;2730;51.512;7.504;2023-08-07T11:11:42;19.40;1.00
5415;DHT22;2730;51.512;7.504;2023-08-07T11:14:12;18.60;1.00
5415;DHT22;2730;51.512;7.504;2023-08-07T11:16:41;18.10;1.00
5415;DHT22;2730;51.512;7.504;2023-08-07T11:19:08;17.70;1.00
5415;DHT22;2730;51.512;7.504;2023-08-07T11:21:35;17.80;1.00
5415;DHT22;2730;51.512;7.504;2023-08-07T11:24:02;18.30;99.90
5415;DHT22;2730;51.512;7.504;2023-08-07T11:26:30;18.40;1.00
5415;DHT22;2730;51.512;7.504;2023-08-07T11:28:57;18.20;1.00
5415;DHT22;2730;51.512;7.504;2023-08-07T11:31:24;17.80;99.90
5415;DHT22;2730;51.512;7.504;2023-08-07T11:33:54;17.90;1.00
5415;DHT22;2730;51.512;7.504;2023-08-07T11:36:23;18.10;99.90
5415;DHT22;2730;51.512;7.504;2023-08-07T11:38:50;18.30;1.00
5415;DHT22;2730;51.512;7.504;2023-08-07T11:41:17;18.20;1.00
5415;DHT22;2730;51.512;7.504;2023-08-07T11:43:45;18.10;99.90
5415;DHT22;2730;51.512;7.504;2023-08-07T11:46:13;18.20;99.90
5415;DHT22;2730;51.512;7.504;2023-08-07T11:48:42;18.30;99.90
5415;DHT22;2730;51.512;7.504;2023-08-07T11:51:10;18.30;20.60
5415;DHT22;2730;51.512;7.504;2023-08-07T11:53:40;18.70;1.00
5415;DHT22;2730;51.512;7.504;2023-08-07T11:56:08;19.00;99.90
5415;DHT22;2730;51.512;7.504;2023-08-07T11:58:37;19.30;99.90
5415;DHT22;2730;51.512;7.504;2023-08-07T12:01:04;18.80;99.90
5415;DHT22;2730;51.512;7.504;2023-08-07T12:03:33;18.30;1.00
5415;DHT22;2730;51.512;7.504;2023-08-07T12:06:03;18.70;99.90
5415;DHT22;2730;51.512;7.504;2023-08-07T12:08:35;18.70;1.00
5415;DHT22;2730;51.512;7.504;2023-08-07T12:11:04;18.30;99.90
5415;DHT22;2730;51.512;7.504;2023-08-07T12:13:31;18.10;99.90
5415;DHT22;2730;51.512;7.504;2023-08-07T12:16:01;18.10;67.30
5415;DHT22;2730;51.512;7.504;2023-08-07T12:18:29;18.20;99.90
5415;DHT22;2730;51.512;7.504;2023-08-07T12:21:00;18.00;99.90
5415;DHT22;2730;51.512;7.504;2023-08-07T12:23:27;18.00;1.00
5415;DHT22;2730;51.512;7.504;2023-08-07T12:25:56;18.20;99.90
5415;DHT22;2730;51.512;7.504;2023-08-07T12:28:22;18.40;1.00
5415;DHT22;2730;51.512;7.504;2023-08-07T12:30:50;18.50;1.00
5415;DHT22;2730;51.512;7.504;2023-08-07T12:33:18;18.80;1.00
5415;DHT22;2730;51.512;7.504;2023-08-07T12:35:45;18.90;1.00
5415;DHT22;2730;51.512;7.504;2023-08-07T12:38:12;19.00;99.90
5415;DHT22;2730;51.512;7.504;2023-08-07T12:40:41;18.80;99.90
5415;DHT22;2730;51.512;7.504;2023-08-07T12:43:09;18.70;99.90
5415;DHT22;2730;51.512;7.504;2023-08-07T12:45:36;18.80;99.90
5415;DHT22;2730;51.512;7.504;2023-08-07T12:48:03;18.70;99.90
5415;DHT22;2730;51.512;7.504;2023-08-07T12:50:30;18.60;1.00
5415;DHT22;2730;51.512;7.504;2023-08-07T12:52:57;18.60;1.00
5415;DHT22;2730;51.512;7.504;2023-08-07T12:55:24;18.60;99.90
5415;DHT22;2730;51.512;7.504;2023-08-07T12:57:52;18.60;10.40
5415;DHT22;2730;51.512;7.504;2023-08-07T13:00:21;18.70;1.00
5415;DHT22;2730;51.512;7.504;2023-08-07T13:02:48;19.00;1.00
5415;DHT22;2730;51.512;7.504;2023-08-07T13:05:17;19.10;99.90
5415;DHT22;2730;51.512;7.504;2023-08-07T13:07:44;18.70;99.90
5415;DHT22;2730;51.512;7.504;2023-08-07T13:10:13;18.40;1.00
5415;DHT22;2730;51.512;7.504;2023-08-07T13:12:42;18.40;1.00
5415;DHT22;2730;51.512;7.504;2023-08-07T13:15:11;18.70;99.90
5415;DHT22;2730;51.512;7.504;2023-08-07T13:17:40;19.10;41.70
5415;DHT22;2730;51.512;7.504;2023-08-07T13:20:09;19.40;99.90
5415;DHT22;2730;51.512;7.504;2023-08-07T13:22:36;19.70;99.90
5415;DHT22;2730;51.512;7.504;2023-08-07T13:25:03;20.10;1.00
5415;DHT22;2730;51.512;7.504;2023-08-07T13:27:30;20.10;99.90
5415;DHT22;2730;51.512;7.504;2023-08-07T13:29:57;20.20;1.00
5415;DHT22;2730;51.512;7.504;2023-08-07T13:32:25;20.00;1.00
5415;DHT22;2730;51.512;7.504;2023-08-07T13:34:53;19.60;1.00
5415;DHT22;2730;51.512;7.504;2023-08-07T13:37:20;19.30;1.00
5415;DHT22;2730;51.512;7.504;2023-08-07T13:39:47;19.30;1.00
5415;DHT22;2730;51.512;7.504;2023-08-07T13:42:16;19.00;68.60
5415;DHT22;2730;51.512;7.504;2023-08-07T13:44:42;19.30;99.90
5415;DHT22;2730;51.512;7.504;2023-08-07T13:47:10;19.50;1.00
5415;DHT22;2730;51.512;7.504;2023-08-07T13:49:37;19.30;1.00
5415;DHT22;2730;51.512;7.504;2023-08-07T13:52:06;19.20;1.00
5415;DHT22;2730;51.512;7.504;2023-08-07T13:54:32;19.10;1.00
5415;DHT22;2730;51.512;7.504;2023-08-07T13:56:59;19.40;1.00
5415;DHT22;2730;51.512;7.504;2023-08-07T13:59:26;19.60;1.00
5415;DHT22;2730;51.512;7.504;2023-08-07T14:01:53;19.50;1.00
5415;DHT22;2730;51.512;7.504;2023-08-07T14:04:21;19.70;1.00
5415;DHT22;2730;51.512;7.504;2023-08-07T14:06:48;19.90;1.00
5415;DHT22;2730;51.512;7.504;2023-08-07T14:09:16;19.80;1.00
5415;DHT22;2730;51.512;7.504;2023-08-07T14:11:44;19.40;1.00
5415;DHT22;2730;51.512;7.504;2023-08-07T14:14:11;18.80;99.90
5415;DHT22;2730;51.512;7.504;2023-08-07T14:16:37;18.10;99.90
5415;DHT22;2730;51.512;7.504;2023-08-07T14:19:04;17.40;1.00
5415;DHT22;2730;51.512;7.504;2023-08-07T14:21:31;16.80;1.00
5415;DHT22;2730;51.512;7.504;2023-08-07T14:23:58;16.60;33.50
5415;DHT22;2730;51.512;7.504;2023-08-07T14:26:26;16.30;77.20
5415;DHT22;2730;51.512;7.504;2023-08-07T14:28:53;16.00;99.90
5415;DHT22;2730;51.512;7.504;2023-08-07T14:31:19;15.90;99.90
5415;DHT22;2730;51.512;7.504;2023-08-07T14:33:46;15.90;99.90
5415;DHT22;2730;51.512;7.504;2023-08-07T14:36:13;16.00;99.90
5415;DHT22;2730;51.512;7.504;2023-08-07T14:38:40;16.10;99.90
5415;DHT22;2730;51.512;7.504;2023-08-07T14:41:07;16.20;99.90
5415;DHT22;2730;51.512;7.504;2023-08-07T14:43:35;16.40;99.90
5415;DHT22;2730;51.512;7.504;2023-08-07T14:46:01;16.50;98.60
5415;DHT22;2730;51.512;7.504;2023-08-07T14:48:29;16.70;88.00
5415;DHT22;2730;51.512;7.504;2023-08-07T14:50:55;16.90;95.30
5415;DHT22;2730;51.512;7.504;2023-08-07T14:53:23;16.80;1.00
5415;DHT22;2730;51.512;7.504;2023-08-07T14:55:50;16.90;1.00
5415;DHT22;2730;51.512;7.504;2023-08-07T14:58:18;17.00;1.00
5415;DHT22;2730;51.512;7.504;2023-08-07T15:00:46;17.20;1.00
5415;DHT22;2730;51.512;7.504;2023-08-07T15:03:12;17.30;1.00
5415;DHT22;2730;51.512;7.504;2023-08-07T15:05:39;17.30;1.00
5415;DHT22;2730;51.512;7.504;2023-08-07T15:08:06;17.20;1.00
5415;DHT22;2730;51.512;7.504;2023-08-07T15:10:33;17.10;99.90
5415;DHT22;2730;51.512;7.504;2023-08-07T15:13:00;17.10;99.90
5415;DHT22;2730;51.512;7.504;2023-08-07T15:15:27;17.20;1.00
5415;DHT22;2730;51.512;7.504;2023-08-07T15:17:55;17.60;99.90
5415;DHT22;2730;51.512;7.504;2023-08-07T15:20:22;17.80;99.90
5415;DHT22;2730;51.512;7.504;2023-08-07T15:22:50;17.70;1.00
5415;DHT22;2730;51.512;7.504;2023-08-07T15:25:17;17.80;99.90
5415;DHT22;2730;51.512;7.504;2023-08-07T15:27:43;17.70;1.00
5415;DHT22;2730;51.512;7.504;2023-08-07T15:30:11;17.50;99.90
5415;DHT22;2730;51.512;7.504;2023-08-07T15:32:38;17.50;1.00
5415;DHT22;2730;51.512;7.504;2023-08-07T15:35:08;17.50;1.00
5415;DHT22;2730;51.512;7.504;2023-08-07T15:37:36;17.70;99.90
5415;DHT22;2730;51.512;7.504;2023-08-07T15:40:03;17.70;99.90
5415;DHT22;2730;51.512;7.504;2023-08-07T15:42:30;17.70;1.00
5415;DHT22;2730;51.512;7.504;2023-08-07T15:44:56;17.60;1.00
5415;DHT22;2730;51.512;7.504;2023-08-07T15:47:23;17.40;1.00
5415;DHT22;2730;51.512;7.504;2023-08-07T15:49:50;17.20;99.90
5415;DHT22;2730;51.512;7.504;2023-08-07T15:52:18;17.30;1.00
5415;DHT22;2730;51.512;7.504;2023-08-07T15:54:45;17.40;99.90
5415;DHT22;2730;51.512;7.504;2023-08-07T15:57:12;17.50;1.00
5415;DHT22;2730;51.512;7.504;2023-08-07T15:59:39;17.50;1.00
5415;DHT22;2730;51.512;7.504;2023-08-07T16:02:07;17.60;1.00
5415;DHT22;2730;51.512;7.504;2023-08-07T16:04:34;17.90;99.90
5415;DHT22;2730;51.512;7.504;2023-08-07T16:07:01;18.10;99.90